createdAt,value
2022-11-02T00:03:54.193Z,10.90
2022-11-02T00:08:19.385Z,10.80
2022-11-02T00:12:45.333Z,10.80
2022-11-02T00:17:10.574Z,10.80
2022-11-02T00:21:36.870Z,10.80
2022-11-02T00:26:02.756Z,10.80
2022-11-02T00:30:28.073Z,10.70
2022-11-02T00:34:53.353Z,10.70
2022-11-02T00:39:18.487Z,10.70
2022-11-02T00:43:43.737Z,10.70
2022-11-02T00:48:08.977Z,10.70
2022-11-02T00:52:34.142Z,10.60
2022-11-02T01:01:24.626Z,10.60
2022-11-02T01:05:49.991Z,10.50
2022-11-02T01:10:15.214Z,10.50
2022-11-02T01:14:40.445Z,10.50
2022-11-02T01:19:05.640Z,10.50
2022-11-02T01:23:37.983Z,10.50
2022-11-02T01:28:03.367Z,10.50
2022-11-02T01:32:31.915Z,10.50
2022-11-02T01:36:57.113Z,10.40
2022-11-02T01:41:22.543Z,10.40
2022-11-02T01:45:49.367Z,10.40
2022-11-02T01:50:27.535Z,10.40
2022-11-02T01:55:07.101Z,10.40
2022-11-02T01:59:39.397Z,10.40
2022-11-02T02:04:05.487Z,10.40
2022-11-02T02:08:32.294Z,10.30
2022-11-02T02:12:57.526Z,10.30
2022-11-02T02:17:47.752Z,10.30
2022-11-02T02:22:43.320Z,10.30
2022-11-02T02:27:13.074Z,10.30
2022-11-02T02:32:06.104Z,10.20
2022-11-02T02:36:49.377Z,10.30
2022-11-02T02:41:31.117Z,10.30
2022-11-02T02:46:06.736Z,10.40
2022-11-02T02:50:47.064Z,10.40
2022-11-02T02:55:26.552Z,10.40
2022-11-02T02:59:52.045Z,10.50
2022-11-02T03:04:17.269Z,10.50
2022-11-02T03:08:49.167Z,10.60
2022-11-02T03:13:18.733Z,10.60
2022-11-02T03:17:55.864Z,10.60
2022-11-02T03:23:04.240Z,10.70
2022-11-02T03:27:53.170Z,10.70
2022-11-02T03:32:29.374Z,10.80
2022-11-02T03:37:20.355Z,10.80
2022-11-02T03:41:47.848Z,10.90
2022-11-02T03:46:15.466Z,10.90
2022-11-02T03:50:47.190Z,10.90
2022-11-02T03:55:31.241Z,10.90
2022-11-02T04:00:24.737Z,11.00
2022-11-02T04:04:52.488Z,11.10
2022-11-02T04:09:18.014Z,11.10
2022-11-02T04:14:01.647Z,11.10
2022-11-02T04:18:45.254Z,11.10
2022-11-02T04:23:28.814Z,11.10
2022-11-02T04:27:54.145Z,11.10
2022-11-02T04:32:39.616Z,11.10
2022-11-02T04:37:24.846Z,11.10
2022-11-02T04:41:50.022Z,11.10
2022-11-02T04:46:15.294Z,11.10
2022-11-02T04:50:40.568Z,11.20
2022-11-02T04:55:06.723Z,11.90
2022-11-02T04:59:31.942Z,12.10
2022-11-02T05:03:57.479Z,11.50
2022-11-02T05:08:23.034Z,11.30
2022-11-02T05:12:48.293Z,11.30
2022-11-02T05:17:14.594Z,11.20
2022-11-02T05:21:39.836Z,11.20
2022-11-02T05:26:09.308Z,11.10
2022-11-02T05:30:34.535Z,11.10
2022-11-02T05:34:59.768Z,11.10
2022-11-02T05:39:24.997Z,11.10
2022-11-02T05:43:50.219Z,11.00
2022-11-02T05:48:17.276Z,11.00
2022-11-02T05:52:42.522Z,11.00
2022-11-02T05:57:07.895Z,10.90
2022-11-02T06:01:33.223Z,10.90
2022-11-02T06:06:04.822Z,10.90
2022-11-02T06:10:31.293Z,10.80
2022-11-02T06:14:56.560Z,10.80
2022-11-02T06:19:21.880Z,10.80
2022-11-02T06:23:48.632Z,10.70
2022-11-02T06:28:13.832Z,10.70
2022-11-02T06:32:39.175Z,10.70
2022-11-02T06:37:04.393Z,10.70
2022-11-02T06:41:29.598Z,10.70
2022-11-02T06:45:58.759Z,10.70
2022-11-02T06:50:25.238Z,10.70
2022-11-02T06:54:50.539Z,10.80
2022-11-02T06:59:15.852Z,10.80
2022-11-02T07:03:41.192Z,10.90
2022-11-02T07:08:06.528Z,11.00
2022-11-02T07:12:32.759Z,11.10
2022-11-02T07:16:58.046Z,11.30
2022-11-02T07:21:23.393Z,11.40
2022-11-02T07:25:48.842Z,11.50
2022-11-02T07:30:14.498Z,11.60
2022-11-02T07:34:39.709Z,11.60
2022-11-02T07:39:05.633Z,11.70
2022-11-02T07:43:30.876Z,11.70
2022-11-02T07:47:56.220Z,11.70
2022-11-02T07:52:21.599Z,11.80
2022-11-02T07:56:47.007Z,11.80
2022-11-02T08:01:12.317Z,11.90
2022-11-02T08:05:41.396Z,11.90
2022-11-02T08:10:07.400Z,12.00
2022-11-02T08:14:32.634Z,12.20
2022-11-02T08:18:59.317Z,12.30
2022-11-02T08:23:26.144Z,12.40
2022-11-02T08:27:51.543Z,12.50
2022-11-02T08:32:16.808Z,12.60
2022-11-02T08:36:42.312Z,12.70
2022-11-02T08:41:07.610Z,12.80
2022-11-02T08:46:08.258Z,12.90
2022-11-02T08:50:24.481Z,12.90
2022-11-02T08:54:49.811Z,13.00
2022-11-02T08:59:15.222Z,13.10
2022-11-02T09:03:41.499Z,13.20
2022-11-02T09:08:11.867Z,13.20
2022-11-02T09:12:37.199Z,13.20
2022-11-02T09:17:02.437Z,13.30
2022-11-02T09:21:27.664Z,13.40
2022-11-02T09:25:53.618Z,13.40
2022-11-02T09:30:18.887Z,13.50
2022-11-02T09:34:44.134Z,13.60
2022-11-02T09:39:09.568Z,13.60
2022-11-02T09:43:55.855Z,13.70
2022-11-02T09:48:31.889Z,13.80
2022-11-02T09:53:03.362Z,13.80
2022-11-02T09:57:33.460Z,13.90
2022-11-02T10:02:26.490Z,13.90
2022-11-02T10:07:16.557Z,14.10
2022-11-02T10:12:02.094Z,14.10
2022-11-02T10:16:37.192Z,14.10
2022-11-02T10:21:08.763Z,14.20
2022-11-02T10:25:35.299Z,14.20
2022-11-02T10:30:21.213Z,14.20
2022-11-02T10:34:58.633Z,14.30
2022-11-02T10:39:59.037Z,14.20
2022-11-02T10:45:04.488Z,14.10
2022-11-02T10:50:36.033Z,14.00
2022-11-02T10:55:01.262Z,14.00
2022-11-02T10:59:26.973Z,13.90
2022-11-02T11:04:12.141Z,14.00
2022-11-02T11:08:44.223Z,14.00
2022-11-02T11:23:15.758Z,13.70
2022-11-02T11:27:48.811Z,13.60
2022-11-02T11:32:19.881Z,13.60
2022-11-02T11:36:44.988Z,13.60
2022-11-02T11:41:11.678Z,13.60
2022-11-02T11:45:38.147Z,13.60
2022-11-02T11:50:08.976Z,13.70
2022-11-02T11:54:35.202Z,13.70
2022-11-02T11:59:00.452Z,13.80
2022-11-02T12:03:25.651Z,13.90
2022-11-02T12:08:15.252Z,13.90
2022-11-02T12:12:43.494Z,13.90
2022-11-02T12:17:33.351Z,13.80
2022-11-02T12:22:06.793Z,13.70
2022-11-02T12:27:09.031Z,13.80
2022-11-02T12:31:42.332Z,13.80
2022-11-02T12:36:34.807Z,13.70
2022-11-02T12:41:04.613Z,13.70
2022-11-02T12:45:44.227Z,13.80
2022-11-02T12:50:21.530Z,13.80
2022-11-02T12:54:56.944Z,14.10
2022-11-02T12:59:25.236Z,14.00
2022-11-02T13:04:10.908Z,13.60
2022-11-02T13:08:44.157Z,13.20
2022-11-02T13:13:16.024Z,13.00
2022-11-02T13:17:45.096Z,12.80
2022-11-02T13:22:11.718Z,12.80
2022-11-02T13:26:41.411Z,12.80
2022-11-02T13:31:13.225Z,12.60
2022-11-02T13:35:41.861Z,12.60
2022-11-02T13:40:16.617Z,12.50
2022-11-02T13:45:15.084Z,12.40
2022-11-02T13:49:45.374Z,12.20
2022-11-02T13:54:34.121Z,11.90
2022-11-02T13:59:04.553Z,11.80
2022-11-02T14:03:41.513Z,11.70
2022-11-02T14:08:09.636Z,11.60
2022-11-02T14:12:47.681Z,11.50
2022-11-02T14:17:16.673Z,11.30
2022-11-02T14:21:43.200Z,11.20
2022-11-02T14:26:32.559Z,11.20
2022-11-02T14:31:06.983Z,11.20
2022-11-02T14:35:52.516Z,11.20
2022-11-02T14:40:41.890Z,11.20
2022-11-02T14:45:36.197Z,11.20
2022-11-02T14:50:17.660Z,11.20
2022-11-02T14:55:18.335Z,11.10
2022-11-02T14:59:50.781Z,11.20
2022-11-02T15:04:16.020Z,11.20
2022-11-02T15:09:00.767Z,11.20
2022-11-02T15:13:39.102Z,11.20
2022-11-02T15:18:31.474Z,11.20
2022-11-02T15:23:31.282Z,11.20
2022-11-02T15:28:05.336Z,11.20
2022-11-02T15:32:37.953Z,11.10
2022-11-02T15:37:05.070Z,11.10
2022-11-02T15:42:12.269Z,11.00
2022-11-02T15:47:01.895Z,11.00
2022-11-02T15:51:56.337Z,10.90
2022-11-02T15:56:54.866Z,10.80
2022-11-02T16:01:22.539Z,10.70
2022-11-02T16:05:49.956Z,10.60
2022-11-02T16:10:35.680Z,10.60
2022-11-02T16:15:12.663Z,10.60
2022-11-02T16:19:37.875Z,10.60
2022-11-02T16:24:03.216Z,10.50
2022-11-02T16:28:33.911Z,10.40
2022-11-02T16:33:01.064Z,10.40
2022-11-02T16:37:26.277Z,10.30
2022-11-02T16:41:57.442Z,10.20
2022-11-02T16:46:32.333Z,10.10
2022-11-02T16:51:14.797Z,10.00
2022-11-02T16:55:48.395Z,9.90
2022-11-02T17:00:20.134Z,9.90
2022-11-02T17:04:48.351Z,9.80
2022-11-02T17:09:32.523Z,9.80
2022-11-02T17:14:02.477Z,9.70
2022-11-02T17:18:29.527Z,9.60
2022-11-02T17:23:10.740Z,9.50
2022-11-02T17:27:39.362Z,9.50
2022-11-02T17:32:15.407Z,9.40
2022-11-02T17:36:48.926Z,9.30
2022-11-02T17:41:35.785Z,9.20
2022-11-02T17:46:00.961Z,9.20
2022-11-02T17:50:28.530Z,9.10
2022-11-02T17:54:53.786Z,9.00
2022-11-02T17:59:18.908Z,9.00
2022-11-02T18:03:44.147Z,8.90
2022-11-02T18:08:10.306Z,8.90
2022-11-02T18:12:35.407Z,8.80
2022-11-02T18:17:00.516Z,8.80
2022-11-02T18:21:25.683Z,8.70
2022-11-02T18:25:52.843Z,8.60
2022-11-02T18:30:20.655Z,8.60
2022-11-02T18:34:45.796Z,8.50
2022-11-02T18:39:10.943Z,8.50
2022-11-02T18:43:36.138Z,8.50
2022-11-02T18:48:01.786Z,8.50
2022-11-02T18:52:32.159Z,8.50
2022-11-02T18:56:57.734Z,8.40
2022-11-02T19:01:23.902Z,8.50
2022-11-02T19:06:07.683Z,8.40
2022-11-02T19:10:32.802Z,8.40
2022-11-02T19:14:58.544Z,8.40
2022-11-02T19:19:23.799Z,8.30
2022-11-02T19:23:49.031Z,8.30
2022-11-02T19:28:14.685Z,8.30
2022-11-02T19:32:40.278Z,8.30
2022-11-02T19:37:07.115Z,8.30
2022-11-02T19:41:32.430Z,8.20
2022-11-02T19:46:02.925Z,8.20
2022-11-02T19:50:28.507Z,8.20
2022-11-02T19:54:53.966Z,8.20
2022-11-02T19:59:19.580Z,8.10
2022-11-02T20:03:46.369Z,8.10
2022-11-02T20:08:11.688Z,8.10
2022-11-02T20:12:37.101Z,8.10
2022-11-02T20:17:25.402Z,8.10
2022-11-02T20:21:47.579Z,8.00
2022-11-02T20:26:15.694Z,8.00
2022-11-02T20:30:42.531Z,8.00
2022-11-02T20:35:13.301Z,8.00
2022-11-02T20:39:38.984Z,8.00
2022-11-02T20:44:04.391Z,8.00
2022-11-02T20:48:30.436Z,8.00
2022-11-02T20:52:57.939Z,8.00
2022-11-02T20:57:23.404Z,7.90
2022-11-02T21:01:49.181Z,7.90
2022-11-02T21:06:14.728Z,7.90
2022-11-02T21:10:40.649Z,7.90
2022-11-02T21:15:07.166Z,7.90
2022-11-02T21:19:32.966Z,7.90
2022-11-02T21:23:58.631Z,7.90
2022-11-02T21:28:29.607Z,7.90
2022-11-02T21:32:55.099Z,7.90
2022-11-02T21:37:20.372Z,7.80
2022-11-02T21:41:45.709Z,7.80
2022-11-02T21:46:11.455Z,7.80
2022-11-02T21:50:37.159Z,7.80
2022-11-02T21:55:06.512Z,7.80
2022-11-02T21:59:32.049Z,7.80
2022-11-02T22:03:57.684Z,7.80
2022-11-02T22:08:49.682Z,7.80
2022-11-02T22:13:33.012Z,7.80
2022-11-02T22:17:58.244Z,7.70
2022-11-02T22:22:23.958Z,7.70
2022-11-02T22:26:50.780Z,7.70
2022-11-02T22:31:26.430Z,7.60
2022-11-02T22:35:51.807Z,7.60
2022-11-02T22:40:17.087Z,7.60
2022-11-02T22:44:42.196Z,7.60
2022-11-02T22:49:08.555Z,7.50
2022-11-02T22:53:33.900Z,7.50
2022-11-02T22:58:00.067Z,7.50
2022-11-02T23:02:25.366Z,7.40
2022-11-02T23:06:50.526Z,7.40
2022-11-02T23:11:21.431Z,7.30
2022-11-02T23:15:46.573Z,7.30
2022-11-02T23:20:12.354Z,7.30
2022-11-02T23:25:06.710Z,7.30
2022-11-02T23:29:50.280Z,7.30
2022-11-02T23:34:15.436Z,7.20
2022-11-02T23:39:08.845Z,7.20
2022-11-02T23:43:34.025Z,7.20
2022-11-02T23:48:02.009Z,7.20
2022-11-02T23:52:45.897Z,7.20
2022-11-02T23:57:11.482Z,7.10
